sensor_id;sensor_type;location;lat;lon;timestamp;pressure;altitude;pressure_sealevel;temperature;humidity
5879;BME280;2965;42.640;23.370;2023-07-13T04:01:22;94796.13;;;19.47;nan
5879;BME280;2965;42.640;23.370;2023-07-13T04:03:48;94792.88;;;19.56;nan
5879;BME280;2965;42.640;23.370;2023-07-13T04:06:16;94795.34;;;19.70;nan
5879;BME280;2965;42.640;23.370;2023-07-13T04:08:47;94801.22;;;19.83;nan
5879;BME280;2965;42.640;23.370;2023-07-13T04:11:13;94791.72;;;19.87;nan
5879;BME280;2965;42.640;23.370;2023-07-13T04:13:38;94798.06;;;19.98;nan
5879;BME280;2965;42.640;23.370;2023-07-13T04:16:04;94790.63;;;20.12;nan
5879;BME280;2965;42.640;23.370;2023-07-13T04:18:29;94794.16;;;20.29;nan
5879;BME280;2965;42.640;23.370;2023-07-13T04:20:54;94793.41;;;20.46;nan
5879;BME280;2965;42.640;23.370;2023-07-13T04:23:20;94800.63;;;20.62;nan
5879;BME280;2965;42.640;23.370;2023-07-13T04:25:51;94806.44;;;20.76;nan
5879;BME280;2965;42.640;23.370;2023-07-13T04:28:20;94799.13;;;20.83;nan
5879;BME280;2965;42.640;23.370;2023-07-13T04:30:46;94816.06;;;20.94;nan
5879;BME280;2965;42.640;23.370;2023-07-13T04:33:11;94819.94;;;21.03;nan
5879;BME280;2965;42.640;23.370;2023-07-13T04:35:37;94815.91;;;21.00;nan
5879;BME280;2965;42.640;23.370;2023-07-13T04:38:03;94814.31;;;20.99;nan
5879;BME280;2965;42.640;23.370;2023-07-13T04:40:29;94813.19;;;21.12;nan
5879;BME280;2965;42.640;23.370;2023-07-13T04:42:54;94813.28;;;21.17;nan
5879;BME280;2965;42.640;23.370;2023-07-13T04:45:20;94817.69;;;21.28;nan
5879;BME280;2965;42.640;23.370;2023-07-13T04:47:46;94819.28;;;21.29;nan
5879;BME280;2965;42.640;23.370;2023-07-13T04:50:13;94823.81;;;21.29;nan
5879;BME280;2965;42.640;23.370;2023-07-13T04:52:46;94825.78;;;21.33;nan
5879;BME280;2965;42.640;23.370;2023-07-13T04:55:11;94828.84;;;21.42;nan
5879;BME280;2965;42.640;23.370;2023-07-13T04:57:37;94838.34;;;21.55;nan
5879;BME280;2965;42.640;23.370;2023-07-13T05:00:03;94834.63;;;21.56;nan
5879;BME280;2965;42.640;23.370;2023-07-13T05:02:30;94835.28;;;21.63;nan
5879;BME280;2965;42.640;23.370;2023-07-13T05:04:57;94835.75;;;21.77;nan
5879;BME280;2965;42.640;23.370;2023-07-13T05:07:23;94832.97;;;21.88;nan
5879;BME280;2965;42.640;23.370;2023-07-13T05:09:48;94840.56;;;21.97;nan
5879;BME280;2965;42.640;23.370;2023-07-13T05:12:13;94836.75;;;21.92;nan
5879;BME280;2965;42.640;23.370;2023-07-13T05:14:39;94841.16;;;22.04;nan
5879;BME280;2965;42.640;23.370;2023-07-13T05:17:04;94841.34;;;22.14;nan
5879;BME280;2965;42.640;23.370;2023-07-13T05:19:30;94851.88;;;22.09;nan
5879;BME280;2965;42.640;23.370;2023-07-13T05:21:56;94844.06;;;22.19;nan
5879;BME280;2965;42.640;23.370;2023-07-13T05:24:21;94853.41;;;22.22;nan
5879;BME280;2965;42.640;23.370;2023-07-13T05:26:47;94854.19;;;22.22;nan
5879;BME280;2965;42.640;23.370;2023-07-13T05:29:12;94853.84;;;22.35;nan
5879;BME280;2965;42.640;23.370;2023-07-13T05:31:37;94849.13;;;22.42;nan
5879;BME280;2965;42.640;23.370;2023-07-13T05:34:03;94850.88;;;22.54;nan
5879;BME280;2965;42.640;23.370;2023-07-13T05:36:28;94857.91;;;22.65;nan
5879;BME280;2965;42.640;23.370;2023-07-13T05:38:54;94853.78;;;22.79;nan
5879;BME280;2965;42.640;23.370;2023-07-13T05:41:19;94852.88;;;22.90;nan
5879;BME280;2965;42.640;23.370;2023-07-13T05:43:44;94859.06;;;22.96;nan
5879;BME280;2965;42.640;23.370;2023-07-13T05:46:10;94859.88;;;22.97;nan
5879;BME280;2965;42.640;23.370;2023-07-13T05:48:35;94865.31;;;23.07;nan
5879;BME280;2965;42.640;23.370;2023-07-13T05:51:01;94856.56;;;23.11;nan
5879;BME280;2965;42.640;23.370;2023-07-13T05:53:26;94858.75;;;23.20;nan
5879;BME280;2965;42.640;23.370;2023-07-13T05:55:54;94853.66;;;23.18;nan
5879;BME280;2965;42.640;23.370;2023-07-13T05:58:19;94859.66;;;23.30;nan
5879;BME280;2965;42.640;23.370;2023-07-13T06:00:46;94864.28;;;23.45;nan
5879;BME280;2965;42.640;23.370;2023-07-13T06:03:12;94861.16;;;23.53;nan
5879;BME280;2965;42.640;23.370;2023-07-13T06:05:38;94857.75;;;23.63;nan
5879;BME280;2965;42.640;23.370;2023-07-13T06:08:03;94846.09;;;23.69;nan
5879;BME280;2965;42.640;23.370;2023-07-13T06:10:31;94833.88;;;23.78;nan
5879;BME280;2965;42.640;23.370;2023-07-13T06:12:57;94834.97;;;23.82;nan
5879;BME280;2965;42.640;23.370;2023-07-13T06:15:22;94844.59;;;23.88;nan
5879;BME280;2965;42.640;23.370;2023-07-13T06:17:47;94840.06;;;23.89;nan
5879;BME280;2965;42.640;23.370;2023-07-13T06:20:13;94848.34;;;23.87;nan
5879;BME280;2965;42.640;23.370;2023-07-13T06:22:38;94848.09;;;23.94;nan
5879;BME280;2965;42.640;23.370;2023-07-13T06:25:04;94856.44;;;24.03;nan
5879;BME280;2965;42.640;23.370;2023-07-13T06:27:30;94855.41;;;24.09;nan
5879;BME280;2965;42.640;23.370;2023-07-13T06:29:55;94849.03;;;24.15;nan
5879;BME280;2965;42.640;23.370;2023-07-13T06:32:20;94852.22;;;24.17;nan
5879;BME280;2965;42.640;23.370;2023-07-13T06:34:46;94854.16;;;24.22;nan
5879;BME280;2965;42.640;23.370;2023-07-13T06:37:11;94852.84;;;24.34;nan
5879;BME280;2965;42.640;23.370;2023-07-13T06:39:37;94848.91;;;24.42;nan
5879;BME280;2965;42.640;23.370;2023-07-13T06:42:02;94846.03;;;24.54;nan
5879;BME280;2965;42.640;23.370;2023-07-13T06:44:27;94844.72;;;24.61;nan
5879;BME280;2965;42.640;23.370;2023-07-13T06:46:53;94846.31;;;24.67;nan
5879;BME280;2965;42.640;23.370;2023-07-13T06:49:18;94850.09;;;24.77;nan
5879;BME280;2965;42.640;23.370;2023-07-13T06:51:44;94842.06;;;24.82;nan
5879;BME280;2965;42.640;23.370;2023-07-13T06:54:09;94841.84;;;24.99;nan
5879;BME280;2965;42.640;23.370;2023-07-13T06:56:34;94850.47;;;25.11;nan
5879;BME280;2965;42.640;23.370;2023-07-13T06:59:00;94845.38;;;25.30;nan
5879;BME280;2965;42.640;23.370;2023-07-13T07:01:25;94853.13;;;25.36;nan
5879;BME280;2965;42.640;23.370;2023-07-13T07:03:50;94850.47;;;25.52;nan
5879;BME280;2965;42.640;23.370;2023-07-13T07:06:19;94847.78;;;25.57;nan
5879;BME280;2965;42.640;23.370;2023-07-13T07:08:45;94846.44;;;25.70;nan
5879;BME280;2965;42.640;23.370;2023-07-13T07:11:17;94853.41;;;25.81;nan
5879;BME280;2965;42.640;23.370;2023-07-13T07:13:43;94846.72;;;25.99;nan
5879;BME280;2965;42.640;23.370;2023-07-13T07:16:08;94847.75;;;26.08;nan
5879;BME280;2965;42.640;23.370;2023-07-13T07:18:34;94835.16;;;25.93;nan
5879;BME280;2965;42.640;23.370;2023-07-13T07:21:00;94851.50;;;26.12;nan
5879;BME280;2965;42.640;23.370;2023-07-13T07:23:26;94847.19;;;26.21;nan
5879;BME280;2965;42.640;23.370;2023-07-13T07:25:51;94846.88;;;26.28;nan
5879;BME280;2965;42.640;23.370;2023-07-13T07:28:17;94840.94;;;26.41;nan
5879;BME280;2965;42.640;23.370;2023-07-13T07:30:47;94839.03;;;26.52;nan
5879;BME280;2965;42.640;23.370;2023-07-13T07:33:13;94838.44;;;26.60;nan
5879;BME280;2965;42.640;23.370;2023-07-13T07:35:38;94837.63;;;26.70;nan
5879;BME280;2965;42.640;23.370;2023-07-13T07:38:04;94837.38;;;26.66;nan
5879;BME280;2965;42.640;23.370;2023-07-13T07:40:30;94844.28;;;26.77;nan
5879;BME280;2965;42.640;23.370;2023-07-13T07:42:56;94831.03;;;26.96;nan
5879;BME280;2965;42.640;23.370;2023-07-13T07:45:21;94823.75;;;27.02;nan
5879;BME280;2965;42.640;23.370;2023-07-13T07:47:47;94830.66;;;27.08;nan
5879;BME280;2965;42.640;23.370;2023-07-13T07:50:12;94826.09;;;27.13;nan
5879;BME280;2965;42.640;23.370;2023-07-13T07:52:38;94831.13;;;27.25;nan
5879;BME280;2965;42.640;23.370;2023-07-13T07:55:05;94822.97;;;27.35;nan
5879;BME280;2965;42.640;23.370;2023-07-13T07:57:31;94819.69;;;27.44;nan
5879;BME280;2965;42.640;23.370;2023-07-13T07:59:56;94813.41;;;27.53;nan
5879;BME280;2965;42.640;23.370;2023-07-13T08:02:22;94818.97;;;27.67;nan
5879;BME280;2965;42.640;23.370;2023-07-13T08:04:47;94807.38;;;27.66;nan
5879;BME280;2965;42.640;23.370;2023-07-13T08:07:12;94804.13;;;27.75;nan
5879;BME280;2965;42.640;23.370;2023-07-13T08:09:38;94799.47;;;27.85;nan
5879;BME280;2965;42.640;23.370;2023-07-13T08:12:04;94795.69;;;27.86;nan
5879;BME280;2965;42.640;23.370;2023-07-13T08:14:29;94794.53;;;27.92;nan
5879;BME280;2965;42.640;23.370;2023-07-13T08:16:55;94791.78;;;27.98;nan
5879;BME280;2965;42.640;23.370;2023-07-13T08:19:20;94795.84;;;28.19;nan
5879;BME280;2965;42.640;23.370;2023-07-13T08:21:45;94793.91;;;28.25;nan
5879;BME280;2965;42.640;23.370;2023-07-13T08:24:13;94792.47;;;28.32;nan
5879;BME280;2965;42.640;23.370;2023-07-13T08:26:39;94785.97;;;28.38;nan
5879;BME280;2965;42.640;23.370;2023-07-13T08:29:04;94780.09;;;28.55;nan
5879;BME280;2965;42.640;23.370;2023-07-13T08:31:30;94784.97;;;28.72;nan
5879;BME280;2965;42.640;23.370;2023-07-13T08:33:55;94785.56;;;28.69;nan
5879;BME280;2965;42.640;23.370;2023-07-13T08:36:21;94789.06;;;28.88;nan
5879;BME280;2965;42.640;23.370;2023-07-13T08:38:46;94780.28;;;29.02;nan
5879;BME280;2965;42.640;23.370;2023-07-13T08:41:15;94775.59;;;29.07;nan
5879;BME280;2965;42.640;23.370;2023-07-13T08:43:42;94777.41;;;29.12;nan
5879;BME280;2965;42.640;23.370;2023-07-13T08:46:15;94768.09;;;29.23;nan
5879;BME280;2965;42.640;23.370;2023-07-13T08:48:50;94767.81;;;29.38;nan
5879;BME280;2965;42.640;23.370;2023-07-13T08:53:49;94772.91;;;29.59;nan
5879;BME280;2965;42.640;23.370;2023-07-13T08:56:19;94776.41;;;29.73;nan
5879;BME280;2965;42.640;23.370;2023-07-13T08:58:48;94769.03;;;29.92;nan
5879;BME280;2965;42.640;23.370;2023-07-13T09:01:21;94774.59;;;30.15;nan
5879;BME280;2965;42.640;23.370;2023-07-13T09:04:16;94778.38;;;30.14;nan
5879;BME280;2965;42.640;23.370;2023-07-13T09:17:49;94807.22;;;30.55;nan
5879;BME280;2965;42.640;23.370;2023-07-13T09:20:24;94809.81;;;30.60;nan
5879;BME280;2965;42.640;23.370;2023-07-13T09:22:52;94802.09;;;30.67;nan
5879;BME280;2965;42.640;23.370;2023-07-13T09:25:29;94805.50;;;30.86;nan
5879;BME280;2965;42.640;23.370;2023-07-13T09:27:59;94801.56;;;30.93;nan
5879;BME280;2965;42.640;23.370;2023-07-13T09:30:34;94800.91;;;31.09;nan
5879;BME280;2965;42.640;23.370;2023-07-13T09:33:03;94811.28;;;31.16;nan
5879;BME280;2965;42.640;23.370;2023-07-13T09:35:30;94801.63;;;31.37;nan
5879;BME280;2965;42.640;23.370;2023-07-13T09:38:16;94807.94;;;31.55;nan
5879;BME280;2965;42.640;23.370;2023-07-13T09:40:49;94811.50;;;31.64;nan
5879;BME280;2965;42.640;23.370;2023-07-13T09:43:20;94795.22;;;31.56;nan
5879;BME280;2965;42.640;23.370;2023-07-13T09:45:46;94792.00;;;31.76;nan
5879;BME280;2965;42.640;23.370;2023-07-13T09:48:14;94787.06;;;32.01;nan
5879;BME280;2965;42.640;23.370;2023-07-13T09:50:40;94791.88;;;32.12;nan
5879;BME280;2965;42.640;23.370;2023-07-13T09:53:12;94785.69;;;32.12;nan
5879;BME280;2965;42.640;23.370;2023-07-13T09:55:39;94774.69;;;32.08;nan
5879;BME280;2965;42.640;23.370;2023-07-13T10:00:41;94766.75;;;32.12;nan
5879;BME280;2965;42.640;23.370;2023-07-13T10:03:22;94765.22;;;32.28;nan
5879;BME280;2965;42.640;23.370;2023-07-13T10:05:50;94765.16;;;32.59;nan
5879;BME280;2965;42.640;23.370;2023-07-13T10:08:29;94754.19;;;32.73;nan
5879;BME280;2965;42.640;23.370;2023-07-13T10:11:01;94752.59;;;32.89;nan
5879;BME280;2965;42.640;23.370;2023-07-13T10:13:43;94749.91;;;32.98;nan
5879;BME280;2965;42.640;23.370;2023-07-13T10:16:09;94750.66;;;33.33;nan
5879;BME280;2965;42.640;23.370;2023-07-13T10:18:56;94749.72;;;33.47;nan
5879;BME280;2965;42.640;23.370;2023-07-13T10:21:30;94755.09;;;33.64;nan
5879;BME280;2965;42.640;23.370;2023-07-13T10:24:15;94745.31;;;33.80;nan
5879;BME280;2965;42.640;23.370;2023-07-13T10:27:00;94741.03;;;34.18;nan
5879;BME280;2965;42.640;23.370;2023-07-13T10:29:34;94742.19;;;34.08;nan
5879;BME280;2965;42.640;23.370;2023-07-13T10:32:01;94741.38;;;34.16;nan
5879;BME280;2965;42.640;23.370;2023-07-13T10:34:27;94732.56;;;34.19;nan
5879;BME280;2965;42.640;23.370;2023-07-13T10:36:53;94726.59;;;34.05;nan
5879;BME280;2965;42.640;23.370;2023-07-13T10:39:20;94731.81;;;34.39;nan
5879;BME280;2965;42.640;23.370;2023-07-13T10:42:00;94725.56;;;34.48;nan
5879;BME280;2965;42.640;23.370;2023-07-13T10:44:29;94725.00;;;34.63;nan
5879;BME280;2965;42.640;23.370;2023-07-13T10:46:58;94718.38;;;34.94;nan
5879;BME280;2965;42.640;23.370;2023-07-13T10:49:26;94716.75;;;34.93;nan
5879;BME280;2965;42.640;23.370;2023-07-13T10:51:53;94718.44;;;35.06;nan
5879;BME280;2965;42.640;23.370;2023-07-13T10:54:34;94707.88;;;35.25;nan
5879;BME280;2965;42.640;23.370;2023-07-13T10:57:14;94702.13;;;35.39;nan
5879;BME280;2965;42.640;23.370;2023-07-13T10:59:42;94696.13;;;35.46;nan
5879;BME280;2965;42.640;23.370;2023-07-13T11:02:26;94689.19;;;35.69;nan
5879;BME280;2965;42.640;23.370;2023-07-13T11:04:52;94695.09;;;35.83;nan
5879;BME280;2965;42.640;23.370;2023-07-13T11:07:30;94686.47;;;35.81;nan
5879;BME280;2965;42.640;23.370;2023-07-13T11:10:03;94687.06;;;35.99;nan
5879;BME280;2965;42.640;23.370;2023-07-13T11:12:52;94683.66;;;36.15;nan
5879;BME280;2965;42.640;23.370;2023-07-13T11:15:43;94679.38;;;36.13;nan
5879;BME280;2965;42.640;23.370;2023-07-13T11:18:20;94671.31;;;36.17;nan
5879;BME280;2965;42.640;23.370;2023-07-13T11:20:48;94671.28;;;36.29;nan
5879;BME280;2965;42.640;23.370;2023-07-13T11:25:41;94673.50;;;36.64;nan
5879;BME280;2965;42.640;23.370;2023-07-13T11:35:43;94663.66;;;37.00;nan
5879;BME280;2965;42.640;23.370;2023-07-13T11:38:16;94664.50;;;37.32;nan
5879;BME280;2965;42.640;23.370;2023-07-13T11:40:45;94660.94;;;37.44;nan
5879;BME280;2965;42.640;23.370;2023-07-13T11:43:14;94663.03;;;37.34;nan
5879;BME280;2965;42.640;23.370;2023-07-13T11:45:40;94652.97;;;37.51;nan
5879;BME280;2965;42.640;23.370;2023-07-13T11:48:18;94660.78;;;37.84;nan
5879;BME280;2965;42.640;23.370;2023-07-13T11:50:50;94653.91;;;38.06;nan
5879;BME280;2965;42.640;23.370;2023-07-13T11:53:16;94649.13;;;38.34;nan
5879;BME280;2965;42.640;23.370;2023-07-13T11:55:42;94646.56;;;37.91;nan
5879;BME280;2965;42.640;23.370;2023-07-13T11:58:08;94630.50;;;37.89;nan
5879;BME280;2965;42.640;23.370;2023-07-13T12:00:35;94647.03;;;37.80;nan
5879;BME280;2965;42.640;23.370;2023-07-13T12:03:03;94638.91;;;38.31;nan
5879;BME280;2965;42.640;23.370;2023-07-13T12:05:30;94635.72;;;38.65;nan
5879;BME280;2965;42.640;23.370;2023-07-13T12:07:57;94633.09;;;38.88;nan
5879;BME280;2965;42.640;23.370;2023-07-13T12:10:29;94633.09;;;38.88;nan
5879;BME280;2965;42.640;23.370;2023-07-13T12:13:03;94633.34;;;38.82;nan
5879;BME280;2965;42.640;23.370;2023-07-13T12:18:00;94626.69;;;39.42;nan
5879;BME280;2965;42.640;23.370;2023-07-13T12:20:38;94618.97;;;39.24;nan
5879;BME280;2965;42.640;23.370;2023-07-13T12:23:37;94615.38;;;39.66;nan
5879;BME280;2965;42.640;23.370;2023-07-13T12:26:04;94609.06;;;39.85;nan
5879;BME280;2965;42.640;23.370;2023-07-13T12:30:59;94592.06;;;39.72;nan
5879;BME280;2965;42.640;23.370;2023-07-13T12:33:28;94593.78;;;39.15;nan
5879;BME280;2965;42.640;23.370;2023-07-13T12:35:55;94593.91;;;39.22;nan
5879;BME280;2965;42.640;23.370;2023-07-13T12:38:21;94596.09;;;39.59;nan
5879;BME280;2965;42.640;23.370;2023-07-13T12:40:49;94593.94;;;39.68;nan
5879;BME280;2965;42.640;23.370;2023-07-13T12:43:16;94588.16;;;40.00;nan
5879;BME280;2965;42.640;23.370;2023-07-13T12:46:02;94590.16;;;40.03;nan
5879;BME280;2965;42.640;23.370;2023-07-13T12:48:27;94583.84;;;39.72;nan
5879;BME280;2965;42.640;23.370;2023-07-13T12:50:54;94585.56;;;39.61;nan
5879;BME280;2965;42.640;23.370;2023-07-13T12:53:28;94581.09;;;39.49;nan
5879;BME280;2965;42.640;23.370;2023-07-13T12:55:58;94580.44;;;39.33;nan
5879;BME280;2965;42.640;23.370;2023-07-13T12:58:47;94574.94;;;39.56;nan
5879;BME280;2965;42.640;23.370;2023-07-13T13:01:17;94578.63;;;39.41;nan
5879;BME280;2965;42.640;23.370;2023-07-13T13:03:52;94570.09;;;39.69;nan
5879;BME280;2965;42.640;23.370;2023-07-13T13:08:46;94568.41;;;39.38;nan
5879;BME280;2965;42.640;23.370;2023-07-13T13:11:16;94564.47;;;39.61;nan
5879;BME280;2965;42.640;23.370;2023-07-13T13:13:43;94561.31;;;39.82;nan
5879;BME280;2965;42.640;23.370;2023-07-13T13:16:31;94551.50;;;39.55;nan
5879;BME280;2965;42.640;23.370;2023-07-13T13:19:00;94556.00;;;39.44;nan
5879;BME280;2965;42.640;23.370;2023-07-13T13:21:27;94552.63;;;39.77;nan
5879;BME280;2965;42.640;23.370;2023-07-13T13:23:53;94557.59;;;39.98;nan
5879;BME280;2965;42.640;23.370;2023-07-13T13:26:19;94563.63;;;40.33;nan
5879;BME280;2965;42.640;23.370;2023-07-13T13:28:46;94555.97;;;40.50;nan
5879;BME280;2965;42.640;23.370;2023-07-13T13:33:40;94547.19;;;40.67;nan
5879;BME280;2965;42.640;23.370;2023-07-13T13:36:20;94549.44;;;40.92;nan
5879;BME280;2965;42.640;23.370;2023-07-13T13:38:49;94546.31;;;40.93;nan
5879;BME280;2965;42.640;23.370;2023-07-13T13:41:14;94546.81;;;41.43;nan
5879;BME280;2965;42.640;23.370;2023-07-13T13:43:41;94556.09;;;41.31;nan
5879;BME280;2965;42.640;23.370;2023-07-13T13:46:15;94546.88;;;41.09;nan
5879;BME280;2965;42.640;23.370;2023-07-13T13:48:41;94544.19;;;40.79;nan
5879;BME280;2965;42.640;23.370;2023-07-13T13:51:17;94539.31;;;40.62;nan
5879;BME280;2965;42.640;23.370;2023-07-13T13:53:44;94548.66;;;40.27;nan
5879;BME280;2965;42.640;23.370;2023-07-13T13:56:11;94546.53;;;40.14;nan
5879;BME280;2965;42.640;23.370;2023-07-13T13:58:36;94539.47;;;40.43;nan
5879;BME280;2965;42.640;23.370;2023-07-13T14:01:02;94540.47;;;40.61;nan
5879;BME280;2965;42.640;23.370;2023-07-13T14:03:28;94533.88;;;41.03;nan
5879;BME280;2965;42.640;23.370;2023-07-13T14:05:54;94536.75;;;41.58;nan
5879;BME280;2965;42.640;23.370;2023-07-13T14:08:21;94528.84;;;42.08;nan
5879;BME280;2965;42.640;23.370;2023-07-13T14:10:50;94533.34;;;42.45;nan
5879;BME280;2965;42.640;23.370;2023-07-13T14:25:27;94521.28;;;41.91;nan
5879;BME280;2965;42.640;23.370;2023-07-13T14:27:56;94515.63;;;41.69;nan
5879;BME280;2965;42.640;23.370;2023-07-13T14:30:24;94513.53;;;42.07;nan
5879;BME280;2965;42.640;23.370;2023-07-13T14:32:50;94524.28;;;42.33;nan
5879;BME280;2965;42.640;23.370;2023-07-13T14:35:17;94517.44;;;42.06;nan
5879;BME280;2965;42.640;23.370;2023-07-13T14:37:43;94516.81;;;42.30;nan
5879;BME280;2965;42.640;23.370;2023-07-13T14:40:25;94514.63;;;42.79;nan
5879;BME280;2965;42.640;23.370;2023-07-13T14:42:51;94518.66;;;43.17;nan
5879;BME280;2965;42.640;23.370;2023-07-13T14:45:19;94514.72;;;43.40;nan
5879;BME280;2965;42.640;23.370;2023-07-13T14:47:45;94517.09;;;43.59;nan
5879;BME280;2965;42.640;23.370;2023-07-13T14:50:19;94510.00;;;43.79;nan
5879;BME280;2965;42.640;23.370;2023-07-13T14:52:46;94514.72;;;43.68;nan
5879;BME280;2965;42.640;23.370;2023-07-13T14:55:15;94516.72;;;43.57;nan
5879;BME280;2965;42.640;23.370;2023-07-13T14:57:41;94512.38;;;43.70;nan
5879;BME280;2965;42.640;23.370;2023-07-13T15:00:14;94510.78;;;43.76;nan
5879;BME280;2965;42.640;23.370;2023-07-13T15:02:44;94516.72;;;43.53;nan
5879;BME280;2965;42.640;23.370;2023-07-13T15:07:39;94507.63;;;43.42;nan
5879;BME280;2965;42.640;23.370;2023-07-13T15:10:23;94509.25;;;43.50;nan
5879;BME280;2965;42.640;23.370;2023-07-13T15:12:51;94508.44;;;43.46;nan
5879;BME280;2965;42.640;23.370;2023-07-13T15:15:17;94509.59;;;43.20;nan
5879;BME280;2965;42.640;23.370;2023-07-13T15:17:46;94507.59;;;42.92;nan
5879;BME280;2965;42.640;23.370;2023-07-13T15:22:45;94521.31;;;42.74;nan
5879;BME280;2965;42.640;23.370;2023-07-13T15:25:17;94519.34;;;42.75;nan
5879;BME280;2965;42.640;23.370;2023-07-13T15:27:43;94519.31;;;42.64;nan
5879;BME280;2965;42.640;23.370;2023-07-13T15:30:09;94511.09;;;42.78;nan
5879;BME280;2965;42.640;23.370;2023-07-13T15:32:35;94506.22;;;42.36;nan
5879;BME280;2965;42.640;23.370;2023-07-13T15:35:00;94513.47;;;41.96;nan
5879;BME280;2965;42.640;23.370;2023-07-13T15:37:25;94505.03;;;42.26;nan
5879;BME280;2965;42.640;23.370;2023-07-13T15:42:20;94502.78;;;42.57;nan
5879;BME280;2965;42.640;23.370;2023-07-13T15:44:46;94511.97;;;42.09;nan
5879;BME280;2965;42.640;23.370;2023-07-13T15:47:12;94512.41;;;41.53;nan
5879;BME280;2965;42.640;23.370;2023-07-13T15:49:39;94504.16;;;41.05;nan
5879;BME280;2965;42.640;23.370;2023-07-13T15:52:14;94512.22;;;41.31;nan
5879;BME280;2965;42.640;23.370;2023-07-13T15:54:41;94502.28;;;41.64;nan
5879;BME280;2965;42.640;23.370;2023-07-13T15:57:09;94511.06;;;40.92;nan
5879;BME280;2965;42.640;23.370;2023-07-13T15:59:36;94504.84;;;40.27;nan
5879;BME280;2965;42.640;23.370;2023-07-13T16:02:16;94514.84;;;40.13;nan
5879;BME280;2965;42.640;23.370;2023-07-13T16:04:42;94510.38;;;39.74;nan
5879;BME280;2965;42.640;23.370;2023-07-13T16:07:10;94505.91;;;39.89;nan
5879;BME280;2965;42.640;23.370;2023-07-13T16:09:35;94515.47;;;40.06;nan
5879;BME280;2965;42.640;23.370;2023-07-13T16:12:00;94515.19;;;39.84;nan
5879;BME280;2965;42.640;23.370;2023-07-13T16:14:26;94498.69;;;39.77;nan
5879;BME280;2965;42.640;23.370;2023-07-13T16:16:51;94507.28;;;39.53;nan
5879;BME280;2965;42.640;23.370;2023-07-13T16:19:20;94508.78;;;39.73;nan
5879;BME280;2965;42.640;23.370;2023-07-13T16:21:53;94502.25;;;39.55;nan
5879;BME280;2965;42.640;23.370;2023-07-13T16:24:22;94501.09;;;39.82;nan
5879;BME280;2965;42.640;23.370;2023-07-13T16:26:50;94504.47;;;39.99;nan
5879;BME280;2965;42.640;23.370;2023-07-13T16:29:20;94497.38;;;39.98;nan
5879;BME280;2965;42.640;23.370;2023-07-13T16:34:20;94492.78;;;40.05;nan
5879;BME280;2965;42.640;23.370;2023-07-13T16:36:45;94498.16;;;39.95;nan
5879;BME280;2965;42.640;23.370;2023-07-13T16:39:12;94495.72;;;39.90;nan
5879;BME280;2965;42.640;23.370;2023-07-13T16:41:39;94501.69;;;39.69;nan
5879;BME280;2965;42.640;23.370;2023-07-13T16:44:13;94497.13;;;39.80;nan
5879;BME280;2965;42.640;23.370;2023-07-13T16:46:41;94497.84;;;39.73;nan
5879;BME280;2965;42.640;23.370;2023-07-13T16:49:28;94504.00;;;38.75;nan
5879;BME280;2965;42.640;23.370;2023-07-13T16:51:55;94502.88;;;38.56;nan
5879;BME280;2965;42.640;23.370;2023-07-13T16:54:26;94504.28;;;38.70;nan
5879;BME280;2965;42.640;23.370;2023-07-13T16:56:53;94497.59;;;38.67;nan
5879;BME280;2965;42.640;23.370;2023-07-13T16:59:19;94495.47;;;38.38;nan
5879;BME280;2965;42.640;23.370;2023-07-13T17:01:45;94498.97;;;38.19;nan
5879;BME280;2965;42.640;23.370;2023-07-13T17:04:16;94503.03;;;37.90;nan
5879;BME280;2965;42.640;23.370;2023-07-13T17:06:46;94509.28;;;37.23;nan
5879;BME280;2965;42.640;23.370;2023-07-13T17:09:12;94501.19;;;36.95;nan
5879;BME280;2965;42.640;23.370;2023-07-13T17:11:42;94500.28;;;36.75;nan
5879;BME280;2965;42.640;23.370;2023-07-13T17:14:17;94503.59;;;36.53;nan
5879;BME280;2965;42.640;23.370;2023-07-13T17:16:52;94501.19;;;36.23;nan
5879;BME280;2965;42.640;23.370;2023-07-13T17:19:19;94506.38;;;36.00;nan
5879;BME280;2965;42.640;23.370;2023-07-13T17:21:48;94500.88;;;35.60;nan
5879;BME280;2965;42.640;23.370;2023-07-13T17:24:18;94500.63;;;35.53;nan
5879;BME280;2965;42.640;23.370;2023-07-13T17:26:46;94503.13;;;35.33;nan
5879;BME280;2965;42.640;23.370;2023-07-13T17:29:11;94504.94;;;35.17;nan
5879;BME280;2965;42.640;23.370;2023-07-13T17:31:37;94495.84;;;35.01;nan
5879;BME280;2965;42.640;23.370;2023-07-13T17:34:03;94494.41;;;34.70;nan
5879;BME280;2965;42.640;23.370;2023-07-13T17:36:30;94495.47;;;34.45;nan
5879;BME280;2965;42.640;23.370;2023-07-13T17:38:57;94498.34;;;34.27;nan
5879;BME280;2965;42.640;23.370;2023-07-13T17:41:23;94500.28;;;34.06;nan
5879;BME280;2965;42.640;23.370;2023-07-13T17:43:50;94495.47;;;33.82;nan
5879;BME280;2965;42.640;23.370;2023-07-13T17:46:17;94508.50;;;33.38;nan
5879;BME280;2965;42.640;23.370;2023-07-13T17:48:46;94508.81;;;33.07;nan
5879;BME280;2965;42.640;23.370;2023-07-13T17:51:16;94515.59;;;32.66;nan
5879;BME280;2965;42.640;23.370;2023-07-13T17:53:43;94516.44;;;32.49;nan
5879;BME280;2965;42.640;23.370;2023-07-13T17:56:12;94518.38;;;32.40;nan
5879;BME280;2965;42.640;23.370;2023-07-13T17:58:39;94518.50;;;31.92;nan
5879;BME280;2965;42.640;23.370;2023-07-13T18:01:09;94520.53;;;31.60;nan
5879;BME280;2965;42.640;23.370;2023-07-13T18:03:38;94518.28;;;31.45;nan
5879;BME280;2965;42.640;23.370;2023-07-13T18:06:28;94514.75;;;31.35;nan
5879;BME280;2965;42.640;23.370;2023-07-13T18:08:57;94518.72;;;30.67;nan
5879;BME280;2965;42.640;23.370;2023-07-13T18:11:24;94518.97;;;30.57;nan
5879;BME280;2965;42.640;23.370;2023-07-13T18:13:50;94527.94;;;30.21;nan
5879;BME280;2965;42.640;23.370;2023-07-13T18:16:26;94531.19;;;29.96;nan
5879;BME280;2965;42.640;23.370;2023-07-13T18:18:56;94535.69;;;29.64;nan
5879;BME280;2965;42.640;23.370;2023-07-13T18:21:23;94530.88;;;29.61;nan
5879;BME280;2965;42.640;23.370;2023-07-13T18:23:49;94537.06;;;29.48;nan
5879;BME280;2965;42.640;23.370;2023-07-13T18:26:19;94531.56;;;29.53;nan
5879;BME280;2965;42.640;23.370;2023-07-13T18:28:45;94550.06;;;29.46;nan
5879;BME280;2965;42.640;23.370;2023-07-13T18:31:16;94552.44;;;29.06;nan
5879;BME280;2965;42.640;23.370;2023-07-13T18:33:43;94552.44;;;29.06;nan
5879;BME280;2965;42.640;23.370;2023-07-13T18:36:13;94567.59;;;29.02;nan
5879;BME280;2965;42.640;23.370;2023-07-13T18:38:40;94570.66;;;28.49;nan